sensor_id;sensor_type;location;lat;lon;timestamp;P1;durP1;ratioP1;P2;durP2;ratioP2
16665;SDS011;8446;50.998;6.250;2023-05-23T00:01:41;9.30;;;7.30;;
16665;SDS011;8446;50.998;6.250;2023-05-23T00:04:09;11.03;;;6.97;;
16665;SDS011;8446;50.998;6.250;2023-05-23T00:06:41;9.50;;;6.90;;
16665;SDS011;8446;50.998;6.250;2023-05-23T00:09:08;10.33;;;6.63;;
16665;SDS011;8446;50.998;6.250;2023-05-23T00:11:35;11.30;;;8.07;;
16665;SDS011;8446;50.998;6.250;2023-05-23T00:14:02;13.80;;;7.60;;
16665;SDS011;8446;50.998;6.250;2023-05-23T00:16:32;9.87;;;7.33;;
16665;SDS011;8446;50.998;6.250;2023-05-23T00:19:00;13.23;;;8.30;;
16665;SDS011;8446;50.998;6.250;2023-05-23T00:21:29;12.53;;;7.83;;
16665;SDS011;8446;50.998;6.250;2023-05-23T00:23:57;13.87;;;8.77;;
16665;SDS011;8446;50.998;6.250;2023-05-23T00:26:23;19.13;;;8.53;;
16665;SDS011;8446;50.998;6.250;2023-05-23T00:28:54;14.70;;;9.63;;
16665;SDS011;8446;50.998;6.250;2023-05-23T00:31:21;18.73;;;9.70;;
16665;SDS011;8446;50.998;6.250;2023-05-23T00:33:47;13.43;;;9.20;;
16665;SDS011;8446;50.998;6.250;2023-05-23T00:36:16;19.63;;;12.70;;
16665;SDS011;8446;50.998;6.250;2023-05-23T00:38:43;17.40;;;12.13;;
16665;SDS011;8446;50.998;6.250;2023-05-23T00:41:10;27.80;;;15.23;;
16665;SDS011;8446;50.998;6.250;2023-05-23T00:43:37;25.60;;;14.47;;
16665;SDS011;8446;50.998;6.250;2023-05-23T00:46:04;25.27;;;14.63;;
16665;SDS011;8446;50.998;6.250;2023-05-23T00:48:31;25.67;;;16.87;;
16665;SDS011;8446;50.998;6.250;2023-05-23T00:50:58;30.23;;;16.90;;
16665;SDS011;8446;50.998;6.250;2023-05-23T00:53:27;25.03;;;15.77;;
16665;SDS011;8446;50.998;6.250;2023-05-23T00:55:53;28.27;;;17.70;;
16665;SDS011;8446;50.998;6.250;2023-05-23T00:58:20;27.67;;;17.20;;
16665;SDS011;8446;50.998;6.250;2023-05-23T01:00:48;32.33;;;17.70;;
16665;SDS011;8446;50.998;6.250;2023-05-23T01:03:18;25.63;;;15.73;;
16665;SDS011;8446;50.998;6.250;2023-05-23T01:05:45;33.07;;;16.93;;
16665;SDS011;8446;50.998;6.250;2023-05-23T01:08:12;31.47;;;17.37;;
16665;SDS011;8446;50.998;6.250;2023-05-23T01:10:41;28.43;;;15.80;;
16665;SDS011;8446;50.998;6.250;2023-05-23T01:13:11;28.00;;;17.43;;
16665;SDS011;8446;50.998;6.250;2023-05-23T01:15:46;26.73;;;16.53;;
16665;SDS011;8446;50.998;6.250;2023-05-23T01:18:17;30.70;;;16.90;;
16665;SDS011;8446;50.998;6.250;2023-05-23T01:20:51;24.27;;;14.37;;
16665;SDS011;8446;50.998;6.250;2023-05-23T01:26:32;22.50;;;13.70;;
16665;SDS011;8446;50.998;6.250;2023-05-23T01:29:15;23.73;;;15.07;;
16665;SDS011;8446;50.998;6.250;2023-05-23T01:31:47;24.63;;;12.70;;
16665;SDS011;8446;50.998;6.250;2023-05-23T01:34:17;19.47;;;12.30;;
16665;SDS011;8446;50.998;6.250;2023-05-23T01:36:48;21.60;;;12.60;;
16665;SDS011;8446;50.998;6.250;2023-05-23T01:39:18;21.33;;;12.13;;
16665;SDS011;8446;50.998;6.250;2023-05-23T01:41:45;18.97;;;10.80;;
16665;SDS011;8446;50.998;6.250;2023-05-23T01:44:14;21.73;;;12.13;;
16665;SDS011;8446;50.998;6.250;2023-05-23T01:46:42;16.47;;;11.30;;
16665;SDS011;8446;50.998;6.250;2023-05-23T01:49:11;15.37;;;8.87;;
16665;SDS011;8446;50.998;6.250;2023-05-23T01:51:39;18.63;;;9.00;;
16665;SDS011;8446;50.998;6.250;2023-05-23T01:54:07;14.20;;;7.90;;
16665;SDS011;8446;50.998;6.250;2023-05-23T01:56:36;12.13;;;7.33;;
16665;SDS011;8446;50.998;6.250;2023-05-23T01:59:04;9.40;;;6.40;;
16665;SDS011;8446;50.998;6.250;2023-05-23T02:01:33;9.93;;;6.63;;
16665;SDS011;8446;50.998;6.250;2023-05-23T02:04:01;9.40;;;6.47;;
16665;SDS011;8446;50.998;6.250;2023-05-23T02:06:28;7.07;;;5.33;;
16665;SDS011;8446;50.998;6.250;2023-05-23T02:08:55;10.63;;;5.70;;
16665;SDS011;8446;50.998;6.250;2023-05-23T02:11:22;11.77;;;6.53;;
16665;SDS011;8446;50.998;6.250;2023-05-23T02:13:50;15.87;;;7.87;;
16665;SDS011;8446;50.998;6.250;2023-05-23T02:16:17;12.60;;;8.53;;
16665;SDS011;8446;50.998;6.250;2023-05-23T02:18:45;16.00;;;9.03;;
16665;SDS011;8446;50.998;6.250;2023-05-23T02:21:13;18.10;;;11.17;;
16665;SDS011;8446;50.998;6.250;2023-05-23T02:23:39;25.77;;;10.80;;
16665;SDS011;8446;50.998;6.250;2023-05-23T02:26:06;20.77;;;12.67;;
16665;SDS011;8446;50.998;6.250;2023-05-23T02:28:33;25.90;;;14.80;;
16665;SDS011;8446;50.998;6.250;2023-05-23T02:31:00;25.43;;;13.90;;
16665;SDS011;8446;50.998;6.250;2023-05-23T02:33:27;25.10;;;13.70;;
16665;SDS011;8446;50.998;6.250;2023-05-23T02:35:56;24.00;;;12.47;;
16665;SDS011;8446;50.998;6.250;2023-05-23T02:38:22;19.60;;;12.03;;
16665;SDS011;8446;50.998;6.250;2023-05-23T02:40:50;20.83;;;13.43;;
16665;SDS011;8446;50.998;6.250;2023-05-23T02:43:17;16.97;;;11.10;;
16665;SDS011;8446;50.998;6.250;2023-05-23T02:45:44;18.13;;;10.70;;
16665;SDS011;8446;50.998;6.250;2023-05-23T02:48:11;15.83;;;10.63;;
16665;SDS011;8446;50.998;6.250;2023-05-23T02:50:38;24.80;;;12.83;;
16665;SDS011;8446;50.998;6.250;2023-05-23T02:53:06;16.57;;;10.60;;
16665;SDS011;8446;50.998;6.250;2023-05-23T02:55:33;14.83;;;10.33;;
16665;SDS011;8446;50.998;6.250;2023-05-23T02:58:00;17.30;;;9.57;;
16665;SDS011;8446;50.998;6.250;2023-05-23T03:00:29;15.17;;;10.27;;
16665;SDS011;8446;50.998;6.250;2023-05-23T03:02:57;15.37;;;9.13;;
16665;SDS011;8446;50.998;6.250;2023-05-23T03:05:24;12.77;;;9.37;;
16665;SDS011;8446;50.998;6.250;2023-05-23T03:07:51;16.73;;;9.60;;
16665;SDS011;8446;50.998;6.250;2023-05-23T03:10:19;16.87;;;8.80;;
16665;SDS011;8446;50.998;6.250;2023-05-23T03:12:46;17.40;;;8.47;;
16665;SDS011;8446;50.998;6.250;2023-05-23T03:15:13;13.10;;;8.40;;
16665;SDS011;8446;50.998;6.250;2023-05-23T03:17:40;15.53;;;8.60;;
16665;SDS011;8446;50.998;6.250;2023-05-23T03:20:07;12.03;;;7.97;;
16665;SDS011;8446;50.998;6.250;2023-05-23T03:22:35;11.33;;;7.87;;
16665;SDS011;8446;50.998;6.250;2023-05-23T03:25:02;18.33;;;7.40;;
16665;SDS011;8446;50.998;6.250;2023-05-23T03:27:31;10.10;;;7.70;;
16665;SDS011;8446;50.998;6.250;2023-05-23T03:29:58;11.30;;;7.03;;
16665;SDS011;8446;50.998;6.250;2023-05-23T03:32:25;10.47;;;7.03;;
16665;SDS011;8446;50.998;6.250;2023-05-23T03:34:52;12.93;;;6.90;;
16665;SDS011;8446;50.998;6.250;2023-05-23T03:37:19;10.30;;;7.23;;
16665;SDS011;8446;50.998;6.250;2023-05-23T03:39:46;15.63;;;8.00;;
16665;SDS011;8446;50.998;6.250;2023-05-23T03:42:12;11.97;;;7.20;;
16665;SDS011;8446;50.998;6.250;2023-05-23T03:44:41;15.60;;;7.40;;
16665;SDS011;8446;50.998;6.250;2023-05-23T03:47:07;14.70;;;7.23;;
16665;SDS011;8446;50.998;6.250;2023-05-23T03:49:34;19.37;;;9.77;;
16665;SDS011;8446;50.998;6.250;2023-05-23T03:52:01;12.50;;;7.17;;
16665;SDS011;8446;50.998;6.250;2023-05-23T03:54:28;22.60;;;6.90;;
16665;SDS011;8446;50.998;6.250;2023-05-23T03:56:55;12.50;;;7.00;;
16665;SDS011;8446;50.998;6.250;2023-05-23T03:59:22;13.63;;;7.57;;
16665;SDS011;8446;50.998;6.250;2023-05-23T04:01:50;13.80;;;7.20;;
16665;SDS011;8446;50.998;6.250;2023-05-23T04:04:17;17.63;;;7.40;;
16665;SDS011;8446;50.998;6.250;2023-05-23T04:06:45;19.33;;;8.00;;
16665;SDS011;8446;50.998;6.250;2023-05-23T04:09:11;11.13;;;6.20;;
16665;SDS011;8446;50.998;6.250;2023-05-23T04:11:39;14.00;;;7.87;;
16665;SDS011;8446;50.998;6.250;2023-05-23T04:14:06;13.37;;;7.07;;
16665;SDS011;8446;50.998;6.250;2023-05-23T04:16:33;19.47;;;8.13;;
16665;SDS011;8446;50.998;6.250;2023-05-23T04:19:02;12.73;;;7.97;;
16665;SDS011;8446;50.998;6.250;2023-05-23T04:21:29;13.80;;;7.17;;
16665;SDS011;8446;50.998;6.250;2023-05-23T04:23:56;17.27;;;8.20;;
16665;SDS011;8446;50.998;6.250;2023-05-23T04:26:23;15.80;;;8.37;;
16665;SDS011;8446;50.998;6.250;2023-05-23T04:28:50;10.27;;;6.40;;
16665;SDS011;8446;50.998;6.250;2023-05-23T04:31:18;13.10;;;7.90;;
16665;SDS011;8446;50.998;6.250;2023-05-23T04:33:46;10.10;;;6.83;;
16665;SDS011;8446;50.998;6.250;2023-05-23T04:36:14;11.57;;;7.40;;
16665;SDS011;8446;50.998;6.250;2023-05-23T04:38:41;10.13;;;5.77;;
16665;SDS011;8446;50.998;6.250;2023-05-23T04:41:08;15.00;;;6.87;;
16665;SDS011;8446;50.998;6.250;2023-05-23T04:43:35;14.73;;;7.27;;
16665;SDS011;8446;50.998;6.250;2023-05-23T04:46:06;18.40;;;7.43;;
16665;SDS011;8446;50.998;6.250;2023-05-23T04:48:34;10.60;;;6.80;;
16665;SDS011;8446;50.998;6.250;2023-05-23T04:51:01;18.33;;;7.43;;
16665;SDS011;8446;50.998;6.250;2023-05-23T04:53:33;14.30;;;7.43;;
16665;SDS011;8446;50.998;6.250;2023-05-23T04:56:00;12.80;;;6.80;;
16665;SDS011;8446;50.998;6.250;2023-05-23T04:58:27;12.73;;;7.63;;
16665;SDS011;8446;50.998;6.250;2023-05-23T05:00:55;19.23;;;8.30;;
16665;SDS011;8446;50.998;6.250;2023-05-23T05:05:51;10.40;;;6.30;;
16665;SDS011;8446;50.998;6.250;2023-05-23T05:08:18;10.30;;;6.97;;
16665;SDS011;8446;50.998;6.250;2023-05-23T05:10:44;12.37;;;6.97;;
16665;SDS011;8446;50.998;6.250;2023-05-23T05:13:11;16.30;;;7.90;;
16665;SDS011;8446;50.998;6.250;2023-05-23T05:15:38;14.73;;;7.17;;
16665;SDS011;8446;50.998;6.250;2023-05-23T05:18:05;12.17;;;7.50;;
16665;SDS011;8446;50.998;6.250;2023-05-23T05:20:31;14.40;;;7.40;;
16665;SDS011;8446;50.998;6.250;2023-05-23T05:23:00;12.43;;;7.43;;
16665;SDS011;8446;50.998;6.250;2023-05-23T05:25:26;16.73;;;8.10;;
16665;SDS011;8446;50.998;6.250;2023-05-23T05:27:56;18.53;;;8.80;;
16665;SDS011;8446;50.998;6.250;2023-05-23T05:30:23;11.90;;;7.30;;
16665;SDS011;8446;50.998;6.250;2023-05-23T05:32:49;11.07;;;7.50;;
16665;SDS011;8446;50.998;6.250;2023-05-23T05:35:16;15.93;;;7.70;;
16665;SDS011;8446;50.998;6.250;2023-05-23T05:37:43;12.10;;;7.13;;
16665;SDS011;8446;50.998;6.250;2023-05-23T05:40:11;19.03;;;6.80;;
16665;SDS011;8446;50.998;6.250;2023-05-23T05:42:38;13.33;;;6.80;;
16665;SDS011;8446;50.998;6.250;2023-05-23T05:45:05;12.97;;;7.40;;
16665;SDS011;8446;50.998;6.250;2023-05-23T05:47:32;8.80;;;6.10;;
16665;SDS011;8446;50.998;6.250;2023-05-23T05:50:00;11.00;;;6.47;;
16665;SDS011;8446;50.998;6.250;2023-05-23T05:52:28;13.60;;;6.03;;
16665;SDS011;8446;50.998;6.250;2023-05-23T05:54:55;10.50;;;6.27;;
16665;SDS011;8446;50.998;6.250;2023-05-23T05:57:23;14.30;;;5.93;;
16665;SDS011;8446;50.998;6.250;2023-05-23T05:59:49;8.00;;;5.60;;
16665;SDS011;8446;50.998;6.250;2023-05-23T06:02:16;17.33;;;6.07;;
16665;SDS011;8446;50.998;6.250;2023-05-23T06:04:43;7.97;;;5.40;;
16665;SDS011;8446;50.998;6.250;2023-05-23T06:07:10;12.65;;;6.95;;
16665;SDS011;8446;50.998;6.250;2023-05-23T06:09:36;9.03;;;5.60;;
16665;SDS011;8446;50.998;6.250;2023-05-23T06:12:03;24.03;;;6.40;;
16665;SDS011;8446;50.998;6.250;2023-05-23T06:14:32;14.13;;;6.17;;
16665;SDS011;8446;50.998;6.250;2023-05-23T06:16:58;12.07;;;6.00;;
16665;SDS011;8446;50.998;6.250;2023-05-23T06:19:25;8.10;;;5.63;;
16665;SDS011;8446;50.998;6.250;2023-05-23T06:21:52;7.73;;;5.67;;
16665;SDS011;8446;50.998;6.250;2023-05-23T06:24:19;7.87;;;5.43;;
16665;SDS011;8446;50.998;6.250;2023-05-23T06:26:45;12.23;;;6.40;;
16665;SDS011;8446;50.998;6.250;2023-05-23T06:29:12;11.57;;;6.53;;
16665;SDS011;8446;50.998;6.250;2023-05-23T06:31:40;10.77;;;5.70;;
16665;SDS011;8446;50.998;6.250;2023-05-23T06:34:07;11.00;;;6.67;;
16665;SDS011;8446;50.998;6.250;2023-05-23T06:36:34;11.80;;;6.90;;
16665;SDS011;8446;50.998;6.250;2023-05-23T06:39:01;11.20;;;6.90;;
16665;SDS011;8446;50.998;6.250;2023-05-23T06:41:27;11.90;;;7.10;;
16665;SDS011;8446;50.998;6.250;2023-05-23T06:43:54;12.57;;;6.30;;
16665;SDS011;8446;50.998;6.250;2023-05-23T06:46:21;8.30;;;6.13;;
16665;SDS011;8446;50.998;6.250;2023-05-23T06:48:49;15.83;;;6.53;;
16665;SDS011;8446;50.998;6.250;2023-05-23T06:51:16;9.97;;;5.80;;
16665;SDS011;8446;50.998;6.250;2023-05-23T06:53:42;11.93;;;6.10;;
16665;SDS011;8446;50.998;6.250;2023-05-23T06:56:09;11.20;;;7.03;;
16665;SDS011;8446;50.998;6.250;2023-05-23T06:58:36;12.80;;;5.90;;
16665;SDS011;8446;50.998;6.250;2023-05-23T07:01:03;11.40;;;6.20;;
16665;SDS011;8446;50.998;6.250;2023-05-23T07:03:30;11.33;;;6.10;;
16665;SDS011;8446;50.998;6.250;2023-05-23T07:05:58;14.63;;;6.90;;
16665;SDS011;8446;50.998;6.250;2023-05-23T07:08:25;12.40;;;7.30;;
16665;SDS011;8446;50.998;6.250;2023-05-23T07:10:52;13.50;;;6.43;;
16665;SDS011;8446;50.998;6.250;2023-05-23T07:13:18;9.10;;;5.60;;
16665;SDS011;8446;50.998;6.250;2023-05-23T07:15:45;10.47;;;5.93;;
16665;SDS011;8446;50.998;6.250;2023-05-23T07:18:12;11.30;;;6.50;;
16665;SDS011;8446;50.998;6.250;2023-05-23T07:20:39;12.90;;;6.77;;
16665;SDS011;8446;50.998;6.250;2023-05-23T07:23:07;17.90;;;6.33;;
16665;SDS011;8446;50.998;6.250;2023-05-23T07:25:34;9.03;;;6.33;;
16665;SDS011;8446;50.998;6.250;2023-05-23T07:28:00;14.60;;;5.80;;
16665;SDS011;8446;50.998;6.250;2023-05-23T07:30:27;13.07;;;7.30;;
16665;SDS011;8446;50.998;6.250;2023-05-23T07:32:54;15.47;;;7.30;;
16665;SDS011;8446;50.998;6.250;2023-05-23T07:35:21;11.67;;;6.60;;
16665;SDS011;8446;50.998;6.250;2023-05-23T07:37:50;13.63;;;7.53;;
16665;SDS011;8446;50.998;6.250;2023-05-23T07:40:18;12.70;;;6.90;;
16665;SDS011;8446;50.998;6.250;2023-05-23T07:42:45;18.77;;;7.20;;
16665;SDS011;8446;50.998;6.250;2023-05-23T07:45:12;10.73;;;6.93;;
16665;SDS011;8446;50.998;6.250;2023-05-23T07:47:39;16.03;;;7.13;;
16665;SDS011;8446;50.998;6.250;2023-05-23T07:50:06;14.70;;;7.27;;
16665;SDS011;8446;50.998;6.250;2023-05-23T07:52:33;18.07;;;7.97;;
16665;SDS011;8446;50.998;6.250;2023-05-23T07:55:00;18.33;;;6.20;;
16665;SDS011;8446;50.998;6.250;2023-05-23T07:57:29;20.13;;;8.73;;
16665;SDS011;8446;50.998;6.250;2023-05-23T07:59:55;14.40;;;7.23;;
16665;SDS011;8446;50.998;6.250;2023-05-23T08:02:22;21.93;;;8.33;;
16665;SDS011;8446;50.998;6.250;2023-05-23T08:04:49;22.53;;;8.60;;
16665;SDS011;8446;50.998;6.250;2023-05-23T08:07:17;27.80;;;8.10;;
16665;SDS011;8446;50.998;6.250;2023-05-23T08:09:44;26.70;;;8.60;;
16665;SDS011;8446;50.998;6.250;2023-05-23T08:12:11;21.23;;;8.80;;
16665;SDS011;8446;50.998;6.250;2023-05-23T08:14:39;17.47;;;7.83;;
16665;SDS011;8446;50.998;6.250;2023-05-23T08:17:05;17.50;;;8.37;;
16665;SDS011;8446;50.998;6.250;2023-05-23T08:19:32;18.30;;;9.07;;
16665;SDS011;8446;50.998;6.250;2023-05-23T08:22:00;19.07;;;8.50;;
16665;SDS011;8446;50.998;6.250;2023-05-23T08:24:27;20.87;;;9.17;;
16665;SDS011;8446;50.998;6.250;2023-05-23T08:26:54;27.30;;;8.13;;
16665;SDS011;8446;50.998;6.250;2023-05-23T08:29:21;13.90;;;7.23;;
16665;SDS011;8446;50.998;6.250;2023-05-23T08:31:49;19.73;;;6.97;;
16665;SDS011;8446;50.998;6.250;2023-05-23T08:34:16;12.37;;;7.40;;
16665;SDS011;8446;50.998;6.250;2023-05-23T08:36:43;17.30;;;8.40;;
16665;SDS011;8446;50.998;6.250;2023-05-23T08:39:10;10.87;;;7.10;;
16665;SDS011;8446;50.998;6.250;2023-05-23T08:41:37;25.30;;;8.13;;
16665;SDS011;8446;50.998;6.250;2023-05-23T08:44:04;23.23;;;6.70;;
16665;SDS011;8446;50.998;6.250;2023-05-23T08:46:31;13.93;;;6.30;;
16665;SDS011;8446;50.998;6.250;2023-05-23T08:49:00;10.83;;;5.80;;
16665;SDS011;8446;50.998;6.250;2023-05-23T08:51:28;16.50;;;6.37;;
16665;SDS011;8446;50.998;6.250;2023-05-23T08:53:57;13.03;;;5.63;;
16665;SDS011;8446;50.998;6.250;2023-05-23T08:56:24;15.03;;;5.77;;
16665;SDS011;8446;50.998;6.250;2023-05-23T08:58:52;12.70;;;7.87;;
16665;SDS011;8446;50.998;6.250;2023-05-23T09:01:19;14.77;;;6.37;;
16665;SDS011;8446;50.998;6.250;2023-05-23T09:03:48;12.70;;;6.30;;
16665;SDS011;8446;50.998;6.250;2023-05-23T09:06:17;12.37;;;5.53;;
16665;SDS011;8446;50.998;6.250;2023-05-23T09:08:46;10.47;;;5.50;;
16665;SDS011;8446;50.998;6.250;2023-05-23T09:11:13;15.43;;;5.77;;
16665;SDS011;8446;50.998;6.250;2023-05-23T09:13:40;11.60;;;5.30;;
16665;SDS011;8446;50.998;6.250;2023-05-23T09:16:08;20.63;;;5.43;;
16665;SDS011;8446;50.998;6.250;2023-05-23T09:18:36;10.17;;;5.47;;
16665;SDS011;8446;50.998;6.250;2023-05-23T09:21:04;19.00;;;5.77;;
16665;SDS011;8446;50.998;6.250;2023-05-23T09:23:32;13.83;;;4.87;;
16665;SDS011;8446;50.998;6.250;2023-05-23T09:26:01;7.80;;;4.57;;
16665;SDS011;8446;50.998;6.250;2023-05-23T09:28:28;17.03;;;5.43;;
16665;SDS011;8446;50.998;6.250;2023-05-23T09:30:59;14.10;;;5.00;;
16665;SDS011;8446;50.998;6.250;2023-05-23T09:33:34;18.60;;;6.00;;
16665;SDS011;8446;50.998;6.250;2023-05-23T09:36:02;25.50;;;5.07;;
16665;SDS011;8446;50.998;6.250;2023-05-23T09:38:30;9.10;;;4.87;;
16665;SDS011;8446;50.998;6.250;2023-05-23T09:40:58;10.10;;;4.90;;
16665;SDS011;8446;50.998;6.250;2023-05-23T09:43:26;16.90;;;5.37;;
16665;SDS011;8446;50.998;6.250;2023-05-23T09:45:54;15.53;;;5.57;;
16665;SDS011;8446;50.998;6.250;2023-05-23T09:48:26;20.33;;;4.83;;
16665;SDS011;8446;50.998;6.250;2023-05-23T09:50:54;9.40;;;5.27;;
16665;SDS011;8446;50.998;6.250;2023-05-23T09:53:21;15.93;;;4.57;;
16665;SDS011;8446;50.998;6.250;2023-05-23T09:55:49;12.43;;;3.70;;
16665;SDS011;8446;50.998;6.250;2023-05-23T09:58:18;19.20;;;5.90;;
16665;SDS011;8446;50.998;6.250;2023-05-23T10:00:45;15.10;;;5.03;;
16665;SDS011;8446;50.998;6.250;2023-05-23T10:03:15;12.57;;;4.37;;
16665;SDS011;8446;50.998;6.250;2023-05-23T10:05:43;11.53;;;4.40;;
16665;SDS011;8446;50.998;6.250;2023-05-23T10:08:13;9.03;;;4.67;;
16665;SDS011;8446;50.998;6.250;2023-05-23T10:11:05;10.90;;;4.63;;
16665;SDS011;8446;50.998;6.250;2023-05-23T10:13:57;8.93;;;4.00;;
16665;SDS011;8446;50.998;6.250;2023-05-23T10:16:27;12.00;;;5.30;;
16665;SDS011;8446;50.998;6.250;2023-05-23T10:19:05;12.03;;;5.33;;
16665;SDS011;8446;50.998;6.250;2023-05-23T10:21:38;10.23;;;4.53;;
16665;SDS011;8446;50.998;6.250;2023-05-23T10:24:10;13.97;;;5.37;;
16665;SDS011;8446;50.998;6.250;2023-05-23T10:26:37;8.33;;;3.80;;
16665;SDS011;8446;50.998;6.250;2023-05-23T10:29:06;10.53;;;4.63;;
16665;SDS011;8446;50.998;6.250;2023-05-23T10:31:33;15.60;;;5.90;;
16665;SDS011;8446;50.998;6.250;2023-05-23T10:34:03;13.40;;;5.27;;
16665;SDS011;8446;50.998;6.250;2023-05-23T10:36:37;14.50;;;5.30;;
16665;SDS011;8446;50.998;6.250;2023-05-23T10:39:11;14.63;;;5.27;;
16665;SDS011;8446;50.998;6.250;2023-05-23T10:41:48;16.20;;;5.20;;
16665;SDS011;8446;50.998;6.250;2023-05-23T10:44:26;10.07;;;5.17;;
16665;SDS011;8446;50.998;6.250;2023-05-23T10:46:55;7.80;;;5.40;;
16665;SDS011;8446;50.998;6.250;2023-05-23T10:49:38;11.20;;;5.27;;
16665;SDS011;8446;50.998;6.250;2023-05-23T10:52:06;19.93;;;5.57;;
16665;SDS011;8446;50.998;6.250;2023-05-23T10:54:33;12.20;;;5.37;;
16665;SDS011;8446;50.998;6.250;2023-05-23T10:57:04;11.90;;;4.67;;
16665;SDS011;8446;50.998;6.250;2023-05-23T10:59:37;11.30;;;5.10;;
16665;SDS011;8446;50.998;6.250;2023-05-23T11:02:05;9.30;;;4.67;;
16665;SDS011;8446;50.998;6.250;2023-05-23T11:04:38;15.37;;;4.70;;
16665;SDS011;8446;50.998;6.250;2023-05-23T11:07:05;11.87;;;5.10;;
16665;SDS011;8446;50.998;6.250;2023-05-23T11:10:07;12.70;;;4.97;;
16665;SDS011;8446;50.998;6.250;2023-05-23T11:12:36;11.10;;;4.70;;
16665;SDS011;8446;50.998;6.250;2023-05-23T11:15:18;10.00;;;4.73;;
16665;SDS011;8446;50.998;6.250;2023-05-23T11:17:49;12.57;;;4.20;;
16665;SDS011;8446;50.998;6.250;2023-05-23T11:20:18;8.60;;;4.43;;
16665;SDS011;8446;50.998;6.250;2023-05-23T11:22:58;8.40;;;4.50;;
16665;SDS011;8446;50.998;6.250;2023-05-23T11:28:15;8.87;;;4.80;;
16665;SDS011;8446;50.998;6.250;2023-05-23T11:30:45;6.93;;;3.93;;
16665;SDS011;8446;50.998;6.250;2023-05-23T11:33:13;9.23;;;4.67;;
16665;SDS011;8446;50.998;6.250;2023-05-23T11:35:41;7.27;;;4.50;;
16665;SDS011;8446;50.998;6.250;2023-05-23T11:38:09;11.43;;;3.83;;
16665;SDS011;8446;50.998;6.250;2023-05-23T11:40:37;8.80;;;4.17;;
16665;SDS011;8446;50.998;6.250;2023-05-23T11:43:05;9.50;;;3.97;;
16665;SDS011;8446;50.998;6.250;2023-05-23T11:45:34;7.10;;;3.60;;
16665;SDS011;8446;50.998;6.250;2023-05-23T11:48:06;8.30;;;4.30;;
16665;SDS011;8446;50.998;6.250;2023-05-23T11:50:33;9.10;;;3.83;;
16665;SDS011;8446;50.998;6.250;2023-05-23T11:53:08;6.07;;;3.60;;
16665;SDS011;8446;50.998;6.250;2023-05-23T11:55:35;10.23;;;4.17;;
16665;SDS011;8446;50.998;6.250;2023-05-23T11:58:05;8.77;;;3.43;;
16665;SDS011;8446;50.998;6.250;2023-05-23T12:00:32;5.73;;;3.10;;
16665;SDS011;8446;50.998;6.250;2023-05-23T12:02:58;8.10;;;3.60;;
16665;SDS011;8446;50.998;6.250;2023-05-23T12:05:33;7.93;;;3.90;;
16665;SDS011;8446;50.998;6.250;2023-05-23T12:08:00;8.03;;;2.90;;
16665;SDS011;8446;50.998;6.250;2023-05-23T12:10:27;10.17;;;3.00;;
16665;SDS011;8446;50.998;6.250;2023-05-23T12:12:54;8.57;;;3.10;;
16665;SDS011;8446;50.998;6.250;2023-05-23T12:15:24;4.97;;;2.80;;
16665;SDS011;8446;50.998;6.250;2023-05-23T12:17:52;5.43;;;2.47;;
16665;SDS011;8446;50.998;6.250;2023-05-23T12:20:21;13.17;;;3.47;;
16665;SDS011;8446;50.998;6.250;2023-05-23T12:22:52;4.77;;;3.20;;
16665;SDS011;8446;50.998;6.250;2023-05-23T12:25:19;4.77;;;2.77;;
16665;SDS011;8446;50.998;6.250;2023-05-23T12:27:47;5.50;;;2.80;;
16665;SDS011;8446;50.998;6.250;2023-05-23T12:30:14;8.63;;;2.57;;
16665;SDS011;8446;50.998;6.250;2023-05-23T12:32:42;9.60;;;3.70;;
16665;SDS011;8446;50.998;6.250;2023-05-23T12:35:10;7.83;;;3.43;;
16665;SDS011;8446;50.998;6.250;2023-05-23T12:37:39;9.93;;;3.10;;
16665;SDS011;8446;50.998;6.250;2023-05-23T12:40:11;6.27;;;2.97;;
16665;SDS011;8446;50.998;6.250;2023-05-23T12:42:47;12.03;;;4.23;;
16665;SDS011;8446;50.998;6.250;2023-05-23T12:45:16;6.60;;;3.10;;
16665;SDS011;8446;50.998;6.250;2023-05-23T12:47:43;11.53;;;3.27;;
16665;SDS011;8446;50.998;6.250;2023-05-23T12:50:10;7.20;;;3.10;;
16665;SDS011;8446;50.998;6.250;2023-05-23T12:52:37;5.70;;;2.93;;
16665;SDS011;8446;50.998;6.250;2023-05-23T12:55:05;11.67;;;2.87;;
16665;SDS011;8446;50.998;6.250;2023-05-23T12:57:34;5.70;;;3.10;;
16665;SDS011;8446;50.998;6.250;2023-05-23T13:00:02;9.77;;;2.77;;
16665;SDS011;8446;50.998;6.250;2023-05-23T13:02:29;8.20;;;2.97;;
16665;SDS011;8446;50.998;6.250;2023-05-23T13:04:56;5.57;;;2.57;;
16665;SDS011;8446;50.998;6.250;2023-05-23T13:07:22;6.37;;;2.67;;
16665;SDS011;8446;50.998;6.250;2023-05-23T13:09:49;16.27;;;3.20;;
16665;SDS011;8446;50.998;6.250;2023-05-23T13:12:17;9.43;;;2.70;;
16665;SDS011;8446;50.998;6.250;2023-05-23T13:14:45;9.77;;;3.33;;
16665;SDS011;8446;50.998;6.250;2023-05-23T13:17:11;11.93;;;3.17;;
16665;SDS011;8446;50.998;6.250;2023-05-23T13:19:38;8.47;;;3.30;;
16665;SDS011;8446;50.998;6.250;2023-05-23T13:22:05;8.50;;;3.33;;
16665;SDS011;8446;50.998;6.250;2023-05-23T13:24:34;8.70;;;3.20;;
16665;SDS011;8446;50.998;6.250;2023-05-23T13:27:01;4.27;;;2.70;;
16665;SDS011;8446;50.998;6.250;2023-05-23T13:29:30;10.60;;;3.90;;
16665;SDS011;8446;50.998;6.250;2023-05-23T13:31:57;6.70;;;3.10;;
16665;SDS011;8446;50.998;6.250;2023-05-23T13:34:27;8.10;;;3.00;;
16665;SDS011;8446;50.998;6.250;2023-05-23T13:36:53;12.53;;;3.17;;
16665;SDS011;8446;50.998;6.250;2023-05-23T13:39:20;9.83;;;3.17;;
16665;SDS011;8446;50.998;6.250;2023-05-23T13:41:47;15.57;;;3.23;;
16665;SDS011;8446;50.998;6.250;2023-05-23T13:44:14;10.23;;;3.53;;
16665;SDS011;8446;50.998;6.250;2023-05-23T13:46:42;8.80;;;2.70;;
16665;SDS011;8446;50.998;6.250;2023-05-23T13:49:09;9.97;;;2.80;;
16665;SDS011;8446;50.998;6.250;2023-05-23T13:51:36;10.97;;;3.50;;
16665;SDS011;8446;50.998;6.250;2023-05-23T13:54:03;7.80;;;2.70;;
16665;SDS011;8446;50.998;6.250;2023-05-23T13:56:30;15.73;;;3.70;;
16665;SDS011;8446;50.998;6.250;2023-05-23T13:58:57;15.10;;;2.70;;
16665;SDS011;8446;50.998;6.250;2023-05-23T14:01:24;7.07;;;3.43;;
16665;SDS011;8446;50.998;6.250;2023-05-23T14:03:52;7.10;;;2.67;;
16665;SDS011;8446;50.998;6.250;2023-05-23T14:06:19;15.17;;;4.60;;
16665;SDS011;8446;50.998;6.250;2023-05-23T14:08:46;10.50;;;2.83;;
16665;SDS011;8446;50.998;6.250;2023-05-23T14:11:13;9.67;;;3.50;;
16665;SDS011;8446;50.998;6.250;2023-05-23T14:13:39;7.63;;;2.60;;
16665;SDS011;8446;50.998;6.250;2023-05-23T14:16:06;4.93;;;2.43;;
16665;SDS011;8446;50.998;6.250;2023-05-23T14:18:33;9.60;;;3.00;;
16665;SDS011;8446;50.998;6.250;2023-05-23T14:21:01;5.07;;;2.37;;
16665;SDS011;8446;50.998;6.250;2023-05-23T14:23:28;8.50;;;2.57;;
16665;SDS011;8446;50.998;6.250;2023-05-23T14:25:55;10.47;;;3.03;;
16665;SDS011;8446;50.998;6.250;2023-05-23T14:28:21;9.70;;;2.80;;
16665;SDS011;8446;50.998;6.250;2023-05-23T14:30:48;4.00;;;1.70;;
16665;SDS011;8446;50.998;6.250;2023-05-23T14:33:15;13.27;;;3.13;;
16665;SDS011;8446;50.998;6.250;2023-05-23T14:35:42;8.93;;;3.60;;
16665;SDS011;8446;50.998;6.250;2023-05-23T14:38:10;9.13;;;2.80;;
16665;SDS011;8446;50.998;6.250;2023-05-23T14:40:37;7.60;;;2.90;;
16665;SDS011;8446;50.998;6.250;2023-05-23T14:43:04;11.87;;;2.87;;
16665;SDS011;8446;50.998;6.250;2023-05-23T14:45:30;9.37;;;2.10;;
16665;SDS011;8446;50.998;6.250;2023-05-23T14:47:57;8.33;;;2.53;;
16665;SDS011;8446;50.998;6.250;2023-05-23T14:50:24;16.50;;;2.80;;
16665;SDS011;8446;50.998;6.250;2023-05-23T14:52:51;8.50;;;2.63;;
16665;SDS011;8446;50.998;6.250;2023-05-23T14:55:19;7.57;;;2.77;;
16665;SDS011;8446;50.998;6.250;2023-05-23T14:57:46;8.13;;;3.10;;
16665;SDS011;8446;50.998;6.250;2023-05-23T15:00:13;10.00;;;2.67;;
16665;SDS011;8446;50.998;6.250;2023-05-23T15:02:41;8.90;;;2.57;;
16665;SDS011;8446;50.998;6.250;2023-05-23T15:05:08;4.87;;;2.40;;